createdAt,value
2017-11-16T00:02:08.797Z,49.28
2017-11-16T00:04:34.771Z,51.30
2017-11-16T00:07:00.766Z,48.50
2017-11-16T00:09:27.566Z,51.35
2017-11-16T00:11:53.546Z,52.15
2017-11-16T00:14:20.920Z,58.58
2017-11-16T00:16:46.894Z,63.47
2017-11-16T00:19:12.886Z,70.20
2017-11-16T00:21:38.870Z,65.93
2017-11-16T00:24:04.854Z,70.75
2017-11-16T00:26:31.576Z,74.12
2017-11-16T00:28:57.548Z,69.62
2017-11-16T00:31:23.497Z,81.35
2017-11-16T00:33:49.545Z,83.62
2017-11-16T00:36:15.540Z,77.62
2017-11-16T00:38:41.510Z,96.53
2017-11-16T00:41:08.263Z,97.57
2017-11-16T00:43:34.409Z,102.28
2017-11-16T00:46:00.389Z,113.05
2017-11-16T00:48:27.108Z,113.07
2017-11-16T00:50:53.119Z,107.97
2017-11-16T00:53:19.058Z,110.77
2017-11-16T00:55:45.054Z,114.65
2017-11-16T00:58:11.038Z,114.50
2017-11-16T01:00:36.999Z,134.40
2017-11-16T01:03:02.962Z,120.10
2017-11-16T01:05:29.694Z,131.40
2017-11-16T01:07:56.405Z,116.47
2017-11-16T01:10:22.384Z,140.98
2017-11-16T01:12:49.386Z,150.13
2017-11-16T01:15:15.349Z,131.87
2017-11-16T01:17:41.296Z,141.50
2017-11-16T01:20:07.295Z,130.75
2017-11-16T01:22:33.433Z,131.93
2017-11-16T01:24:59.414Z,138.65
2017-11-16T01:27:26.131Z,130.18
2017-11-16T01:29:52.095Z,156.80
2017-11-16T01:32:18.068Z,139.62
2017-11-16T01:34:44.796Z,137.27
2017-11-16T01:37:10.754Z,139.13
2017-11-16T01:39:37.469Z,131.52
2017-11-16T01:42:03.472Z,140.80
2017-11-16T01:44:29.449Z,142.18
2017-11-16T01:46:55.427Z,134.20
2017-11-16T01:49:21.438Z,159.65
2017-11-16T01:51:47.428Z,140.05
2017-11-16T01:54:13.397Z,130.90
2017-11-16T01:56:39.741Z,141.62
2017-11-16T01:59:05.698Z,138.50
2017-11-16T02:01:31.653Z,134.98
2017-11-16T02:03:57.651Z,132.50
2017-11-16T02:06:23.597Z,138.37
2017-11-16T02:08:49.557Z,128.52
2017-11-16T02:11:16.269Z,138.77
2017-11-16T02:13:42.246Z,121.93
2017-11-16T02:16:08.259Z,123.50
2017-11-16T02:18:34.209Z,123.32
2017-11-16T02:21:00.168Z,127.45
2017-11-16T02:23:26.894Z,129.12
2017-11-16T02:25:52.863Z,132.02
2017-11-16T02:28:18.829Z,123.80
2017-11-16T02:30:45.195Z,121.72
2017-11-16T02:33:11.929Z,122.68
2017-11-16T02:35:38.650Z,125.12
2017-11-16T02:38:11.646Z,119.20
2017-11-16T02:40:38.368Z,116.57
2017-11-16T02:43:04.334Z,110.90
2017-11-16T02:45:30.363Z,116.60
2017-11-16T02:47:56.327Z,111.97
2017-11-16T02:50:30.045Z,119.03
2017-11-16T02:52:56.018Z,121.47
2017-11-16T02:55:21.999Z,117.25
2017-11-16T02:57:49.030Z,111.25
2017-11-16T03:00:14.997Z,110.68
2017-11-16T03:02:40.965Z,116.97
2017-11-16T03:05:07.017Z,118.65
2017-11-16T03:07:33.723Z,107.28
2017-11-16T03:09:59.706Z,111.37
2017-11-16T03:12:25.702Z,115.97
2017-11-16T03:14:52.418Z,113.00
2017-11-16T03:17:18.386Z,115.18
2017-11-16T03:19:44.379Z,113.15
2017-11-16T03:22:11.159Z,109.97
2017-11-16T03:24:37.132Z,113.10
2017-11-16T03:27:04.374Z,118.35
2017-11-16T03:29:30.372Z,111.18
2017-11-16T03:31:56.351Z,110.88
2017-11-16T03:34:22.332Z,102.22
2017-11-16T03:36:48.400Z,100.53
2017-11-16T03:39:14.374Z,107.20
2017-11-16T03:41:42.097Z,108.07
2017-11-16T03:44:08.057Z,101.75
2017-11-16T03:46:34.756Z,103.60
2017-11-16T03:49:00.745Z,102.70
2017-11-16T03:51:27.441Z,100.28
2017-11-16T03:53:53.427Z,103.47
2017-11-16T03:56:19.405Z,99.97
2017-11-16T03:58:46.118Z,93.97
2017-11-16T04:01:12.109Z,102.07
2017-11-16T04:03:38.082Z,95.15
2017-11-16T04:06:04.062Z,100.87
2017-11-16T04:08:30.238Z,99.70
2017-11-16T04:10:56.189Z,99.47
2017-11-16T04:13:22.143Z,96.25
2017-11-16T04:15:48.901Z,94.35
2017-11-16T04:18:14.885Z,95.03
2017-11-16T04:20:40.839Z,95.12
2017-11-16T04:23:06.830Z,84.82
2017-11-16T04:25:32.790Z,85.65
2017-11-16T04:27:58.776Z,88.28
2017-11-16T04:30:24.774Z,89.93
2017-11-16T04:32:51.481Z,79.57
2017-11-16T04:35:17.445Z,78.35
2017-11-16T04:37:43.436Z,81.70
2017-11-16T04:40:10.138Z,76.12
2017-11-16T04:42:36.110Z,71.97
2017-11-16T04:45:02.286Z,75.32
2017-11-16T04:47:28.246Z,76.10
2017-11-16T04:49:54.946Z,73.00
2017-11-16T04:52:20.902Z,77.18
2017-11-16T04:54:47.622Z,78.50
2017-11-16T04:57:13.633Z,75.40
2017-11-16T04:59:39.594Z,68.27
2017-11-16T05:02:06.303Z,74.70
2017-11-16T05:04:32.654Z,70.97
2017-11-16T05:06:59.363Z,69.82
2017-11-16T05:09:25.348Z,74.28
2017-11-16T05:11:51.641Z,76.05
2017-11-16T05:14:18.351Z,71.47
2017-11-16T05:16:44.332Z,76.12
2017-11-16T05:19:10.316Z,79.45
2017-11-16T05:21:36.322Z,70.77
2017-11-16T05:24:02.311Z,73.35
2017-11-16T05:26:28.318Z,72.37
2017-11-16T05:28:54.288Z,71.82
2017-11-16T05:31:20.261Z,76.28
2017-11-16T05:33:46.246Z,69.12
2017-11-16T05:36:12.988Z,71.82
2017-11-16T05:38:39.725Z,72.57
2017-11-16T05:41:05.738Z,79.17
2017-11-16T05:43:31.689Z,70.62
2017-11-16T05:45:58.394Z,71.75
2017-11-16T05:48:24.386Z,74.93
2017-11-16T05:50:50.358Z,77.60
2017-11-16T05:53:17.071Z,74.80
2017-11-16T05:55:43.061Z,75.53
2017-11-16T05:58:09.021Z,75.55
2017-11-16T06:00:34.981Z,73.37
2017-11-16T06:03:01.194Z,72.72
2017-11-16T06:05:27.910Z,76.20
2017-11-16T06:07:53.908Z,72.85
2017-11-16T06:10:20.177Z,67.50
2017-11-16T06:12:46.890Z,72.20
2017-11-16T06:15:12.856Z,67.80
2017-11-16T06:17:39.005Z,69.00
2017-11-16T06:20:04.982Z,71.05
2017-11-16T06:22:31.697Z,75.57
2017-11-16T06:24:57.853Z,69.10
2017-11-16T06:27:24.593Z,65.03
2017-11-16T06:29:51.300Z,68.53
2017-11-16T06:32:17.304Z,67.70
2017-11-16T06:34:43.291Z,65.70
2017-11-16T06:37:09.302Z,67.57
2017-11-16T06:39:36.052Z,69.60
2017-11-16T06:42:02.038Z,67.97
2017-11-16T06:44:28.015Z,70.87
2017-11-16T06:46:53.994Z,70.07
2017-11-16T06:49:20.689Z,69.15
2017-11-16T06:51:46.855Z,66.20
2017-11-16T06:54:13.575Z,69.62
2017-11-16T06:56:39.536Z,72.72
2017-11-16T06:59:05.556Z,63.72
2017-11-16T07:01:32.262Z,64.20
2017-11-16T07:03:58.227Z,80.50
2017-11-16T07:06:24.221Z,63.08
2017-11-16T07:08:50.929Z,64.57
2017-11-16T07:11:16.912Z,69.55
2017-11-16T07:13:42.903Z,68.75
2017-11-16T07:16:09.614Z,63.38
2017-11-16T07:18:37.294Z,61.50
2017-11-16T07:21:03.269Z,59.08
2017-11-16T07:23:29.225Z,60.57
2017-11-16T07:25:55.461Z,60.50
2017-11-16T07:28:22.913Z,65.22
2017-11-16T07:30:48.906Z,67.18
2017-11-16T07:33:15.281Z,63.33
2017-11-16T07:35:42.009Z,55.63
2017-11-16T07:38:08.013Z,58.33
2017-11-16T07:40:33.996Z,77.75
2017-11-16T07:42:59.986Z,57.03
2017-11-16T07:45:26.695Z,51.60
2017-11-16T07:47:52.678Z,49.15
2017-11-16T07:50:18.781Z,55.58
2017-11-16T07:52:45.494Z,52.85
2017-11-16T07:55:11.457Z,54.42
2017-11-16T07:57:37.439Z,51.03
2017-11-16T08:00:03.419Z,50.78
2017-11-16T08:02:29.395Z,49.10
2017-11-16T08:04:56.151Z,53.37
2017-11-16T08:07:22.106Z,53.60
2017-11-16T08:09:48.069Z,47.90
2017-11-16T08:12:14.782Z,52.47
2017-11-16T08:14:40.763Z,45.30
2017-11-16T08:17:06.742Z,47.72
2017-11-16T08:19:32.975Z,48.95
2017-11-16T08:21:58.945Z,50.72
2017-11-16T08:24:24.910Z,51.10
2017-11-16T08:26:50.894Z,47.80
2017-11-16T08:29:16.860Z,51.37
2017-11-16T08:31:42.819Z,44.47
2017-11-16T08:34:08.829Z,45.65
2017-11-16T08:36:34.779Z,44.57
2017-11-16T08:39:00.782Z,44.63
2017-11-16T08:41:26.763Z,49.13
2017-11-16T08:43:54.210Z,43.70
2017-11-16T08:46:20.175Z,44.03
2017-11-16T08:48:46.161Z,46.75
2017-11-16T08:51:12.115Z,43.10
2017-11-16T08:53:38.082Z,45.35
2017-11-16T08:56:04.044Z,45.13
2017-11-16T08:58:30.763Z,44.13
2017-11-16T09:00:57.001Z,44.78
2017-11-16T09:03:22.941Z,43.85
2017-11-16T09:05:48.897Z,46.95
2017-11-16T09:08:15.162Z,48.50
2017-11-16T09:10:41.137Z,46.80
2017-11-16T09:13:07.098Z,49.95
2017-11-16T09:15:33.089Z,50.15
2017-11-16T09:17:59.061Z,54.28
2017-11-16T09:20:25.778Z,48.55
2017-11-16T09:22:51.733Z,51.83
2017-11-16T09:25:18.449Z,51.35
2017-11-16T09:27:44.411Z,52.65
2017-11-16T09:30:10.592Z,55.80
2017-11-16T09:32:36.572Z,55.83
2017-11-16T09:35:02.534Z,54.60
2017-11-16T09:37:28.502Z,55.60
2017-11-16T09:39:54.470Z,55.00
2017-11-16T09:42:20.494Z,57.92
2017-11-16T09:44:46.477Z,56.57
2017-11-16T09:47:12.455Z,62.70
2017-11-16T09:49:39.182Z,58.80
2017-11-16T09:52:05.157Z,56.63
2017-11-16T09:54:31.116Z,62.53
2017-11-16T09:56:57.848Z,56.00
2017-11-16T09:59:23.853Z,57.50
2017-11-16T10:01:49.811Z,58.05
2017-11-16T10:04:16.542Z,53.75
2017-11-16T10:06:42.494Z,56.30
2017-11-16T10:09:15.617Z,54.95
2017-11-16T10:11:41.579Z,55.70
2017-11-16T10:14:07.534Z,60.47
2017-11-16T10:16:33.723Z,52.17
2017-11-16T10:18:59.708Z,54.10
2017-11-16T10:21:25.694Z,57.20
2017-11-16T10:23:51.678Z,48.90
2017-11-16T10:26:17.667Z,52.72
2017-11-16T10:28:43.690Z,48.40
2017-11-16T10:31:09.661Z,51.03
2017-11-16T10:33:36.383Z,46.00
2017-11-16T10:36:02.530Z,45.65
2017-11-16T10:38:29.239Z,52.20
2017-11-16T10:40:55.214Z,48.00
2017-11-16T10:43:21.218Z,44.38
2017-11-16T10:45:47.924Z,41.70
2017-11-16T10:48:13.881Z,45.92
2017-11-16T10:50:39.876Z,43.35
2017-11-16T10:53:05.848Z,41.42
2017-11-16T10:55:31.822Z,39.80
2017-11-16T10:57:57.826Z,44.08
2017-11-16T11:00:23.790Z,45.47
2017-11-16T11:02:49.759Z,45.25
2017-11-16T11:05:16.022Z,46.42
2017-11-16T11:07:42.734Z,44.53
2017-11-16T11:10:08.719Z,41.95
2017-11-16T11:12:34.902Z,41.37
2017-11-16T11:15:00.855Z,41.17
2017-11-16T11:17:26.834Z,42.28
2017-11-16T11:19:52.803Z,40.80
2017-11-16T11:22:18.787Z,43.00
2017-11-16T11:24:44.738Z,39.80
2017-11-16T11:27:10.718Z,38.20
2017-11-16T11:29:36.718Z,39.37
2017-11-16T11:32:02.697Z,38.30
2017-11-16T11:34:28.687Z,33.95
2017-11-16T11:36:54.711Z,38.30
2017-11-16T11:39:21.477Z,38.27
2017-11-16T11:41:48.181Z,38.42
2017-11-16T11:44:14.176Z,39.35
2017-11-16T11:46:40.145Z,39.40
2017-11-16T11:49:06.858Z,35.43
2017-11-16T11:51:32.834Z,35.88
2017-11-16T11:53:58.795Z,35.58
2017-11-16T11:56:24.772Z,31.95
2017-11-16T11:58:50.811Z,32.93
2017-11-16T12:01:16.790Z,35.85
2017-11-16T12:03:43.496Z,37.60
2017-11-16T12:06:09.467Z,41.40
2017-11-16T12:08:36.170Z,33.40
2017-11-16T12:11:02.130Z,34.60
2017-11-16T12:13:28.294Z,34.83
2017-11-16T12:15:54.263Z,33.25
2017-11-16T12:18:20.997Z,31.55
2017-11-16T12:20:47.693Z,31.02
2017-11-16T12:23:13.670Z,34.72
2017-11-16T12:25:40.386Z,27.23
2017-11-16T12:28:06.374Z,29.15
2017-11-16T12:30:32.380Z,32.30
2017-11-16T12:32:59.282Z,28.52
2017-11-16T12:35:25.993Z,24.12
2017-11-16T12:37:51.964Z,26.42
2017-11-16T12:40:17.982Z,24.50
2017-11-16T12:42:43.958Z,29.40
2017-11-16T12:45:10.231Z,25.95
2017-11-16T12:47:36.233Z,23.20
2017-11-16T12:50:02.954Z,22.37
2017-11-16T12:52:29.670Z,23.52
2017-11-16T12:54:55.699Z,24.60
2017-11-16T12:57:21.674Z,26.48
2017-11-16T12:59:47.647Z,24.12
2017-11-16T13:02:14.005Z,26.23
2017-11-16T13:04:39.967Z,27.75
2017-11-16T13:07:05.942Z,26.62
2017-11-16T13:09:31.922Z,26.30
2017-11-16T13:11:57.894Z,23.50
2017-11-16T13:14:24.594Z,25.43
2017-11-16T13:16:50.572Z,29.15
2017-11-16T13:19:16.526Z,30.20
2017-11-16T13:21:42.508Z,30.83
2017-11-16T13:24:09.239Z,24.90
2017-11-16T13:26:35.953Z,25.35
2017-11-16T13:29:01.917Z,25.37
2017-11-16T13:31:27.912Z,24.52
2017-11-16T13:33:53.871Z,25.12
2017-11-16T13:36:19.834Z,28.25
2017-11-16T13:38:45.808Z,25.52
2017-11-16T13:41:11.794Z,28.38
2017-11-16T13:43:38.507Z,27.30
2017-11-16T13:46:04.535Z,28.00
2017-11-16T13:48:30.495Z,28.87
2017-11-16T13:50:57.181Z,30.58
2017-11-16T13:53:23.338Z,33.17
2017-11-16T13:55:49.302Z,29.42
2017-11-16T13:58:15.256Z,32.53
2017-11-16T14:00:41.296Z,26.52
2017-11-16T14:03:07.254Z,25.02
2017-11-16T14:05:33.212Z,28.83
2017-11-16T14:07:59.170Z,26.35
2017-11-16T14:10:25.119Z,30.62
2017-11-16T14:12:51.105Z,30.17
2017-11-16T14:15:17.817Z,29.73
2017-11-16T14:17:43.795Z,29.83
2017-11-16T14:20:09.810Z,29.08
2017-11-16T14:22:36.691Z,30.62
2017-11-16T14:25:02.863Z,27.85
2017-11-16T14:27:28.826Z,31.52
2017-11-16T14:29:54.776Z,31.20
2017-11-16T14:32:21.030Z,35.15
2017-11-16T14:34:47.027Z,34.30
2017-11-16T14:37:12.995Z,32.37
2017-11-16T14:39:39.307Z,34.28
2017-11-16T14:42:06.015Z,33.80
2017-11-16T14:44:31.991Z,33.38
2017-11-16T14:46:57.993Z,37.90
2017-11-16T14:49:24.710Z,39.00
2017-11-16T14:51:50.678Z,36.67
2017-11-16T14:54:16.913Z,37.40
2017-11-16T14:56:42.897Z,41.35
2017-11-16T14:59:09.602Z,43.05
2017-11-16T15:01:35.617Z,44.10
2017-11-16T15:04:01.578Z,39.70
2017-11-16T15:06:28.302Z,39.20
2017-11-16T15:08:54.298Z,39.20
2017-11-16T15:11:20.314Z,37.30
2017-11-16T15:13:46.279Z,43.42
2017-11-16T15:16:12.286Z,40.42
2017-11-16T15:18:38.274Z,42.62
2017-11-16T15:21:04.234Z,40.72
2017-11-16T15:23:30.221Z,40.67
2017-11-16T15:25:56.210Z,39.00
2017-11-16T15:28:22.178Z,38.08
2017-11-16T15:30:48.173Z,43.47
2017-11-16T15:33:14.163Z,41.97
2017-11-16T15:35:40.858Z,43.10
2017-11-16T15:38:06.866Z,43.50
2017-11-16T15:40:32.845Z,43.38
2017-11-16T15:42:59.559Z,40.78
2017-11-16T15:45:25.533Z,40.53
2017-11-16T15:47:51.495Z,39.60
2017-11-16T15:50:17.474Z,43.15
2017-11-16T15:52:43.661Z,38.47
2017-11-16T15:55:09.630Z,42.97
2017-11-16T15:57:35.599Z,41.90
2017-11-16T16:00:01.831Z,39.17
2017-11-16T16:02:27.802Z,38.88
2017-11-16T16:04:53.774Z,41.58
2017-11-16T16:07:19.739Z,43.22
2017-11-16T16:09:45.713Z,41.33
2017-11-16T16:12:11.725Z,42.88
2017-11-16T16:14:37.693Z,45.28
2017-11-16T16:17:03.650Z,45.03
2017-11-16T16:19:29.914Z,45.30
2017-11-16T16:21:56.633Z,42.33
2017-11-16T16:24:22.626Z,44.97
2017-11-16T16:26:48.618Z,47.23
2017-11-16T16:29:14.582Z,50.45
2017-11-16T16:31:40.561Z,44.87
2017-11-16T16:34:06.562Z,51.92
2017-11-16T16:36:32.507Z,50.08
2017-11-16T16:38:58.471Z,47.70
2017-11-16T16:41:24.682Z,45.58
2017-11-16T16:43:50.637Z,51.40
2017-11-16T16:46:16.597Z,49.70
2017-11-16T16:48:42.556Z,47.13
2017-11-16T16:51:08.518Z,48.67
2017-11-16T16:53:35.290Z,49.25
2017-11-16T16:56:01.248Z,53.20
2017-11-16T16:58:27.193Z,52.30
2017-11-16T17:00:53.930Z,46.83
2017-11-16T17:03:20.641Z,46.30
2017-11-16T17:05:46.614Z,48.55
2017-11-16T17:08:12.838Z,47.77
2017-11-16T17:10:38.824Z,50.33
2017-11-16T17:13:04.790Z,46.75
2017-11-16T17:15:30.766Z,46.83
2017-11-16T17:17:56.734Z,43.63
2017-11-16T17:20:22.705Z,49.87
2017-11-16T17:22:55.746Z,46.60
2017-11-16T17:25:21.706Z,43.13
2017-11-16T17:27:47.667Z,43.50
2017-11-16T17:30:14.397Z,43.60
2017-11-16T17:32:41.090Z,47.72
2017-11-16T17:35:07.066Z,43.25
2017-11-16T17:37:33.770Z,44.55
2017-11-16T17:39:59.726Z,45.08
2017-11-16T17:42:26.758Z,43.17
2017-11-16T17:44:53.485Z,44.73
2017-11-16T17:47:19.446Z,49.63
2017-11-16T17:49:45.449Z,47.13
2017-11-16T17:52:12.155Z,47.08
2017-11-16T17:54:38.120Z,46.58
2017-11-16T17:57:04.354Z,48.08
2017-11-16T17:59:30.312Z,50.85
2017-11-16T18:01:56.308Z,52.40
2017-11-16T18:04:22.274Z,50.75
2017-11-16T18:06:48.244Z,50.57
2017-11-16T18:09:14.230Z,52.60
2017-11-16T18:11:40.969Z,53.50
2017-11-16T18:14:06.947Z,48.95
2017-11-16T18:16:32.897Z,56.40
2017-11-16T18:18:58.907Z,59.88
2017-11-16T18:21:24.866Z,56.15
2017-11-16T18:23:51.585Z,63.25
2017-11-16T18:26:17.564Z,59.30
2017-11-16T18:28:43.527Z,63.47
2017-11-16T18:31:09.494Z,63.17
2017-11-16T18:33:35.470Z,64.00
2017-11-16T18:36:01.443Z,65.25
2017-11-16T18:38:27.435Z,63.92
2017-11-16T18:40:54.154Z,63.05
2017-11-16T18:43:20.897Z,67.25
2017-11-16T18:45:46.908Z,67.10
2017-11-16T18:48:12.894Z,68.28
2017-11-16T18:50:38.858Z,70.70
2017-11-16T18:53:05.187Z,64.93
2017-11-16T18:55:31.907Z,70.57
2017-11-16T18:57:57.867Z,74.00
2017-11-16T19:00:24.894Z,69.60
2017-11-16T19:02:50.845Z,67.28
2017-11-16T19:05:16.816Z,69.20
2017-11-16T19:07:42.835Z,65.20
2017-11-16T19:10:08.801Z,72.10
2017-11-16T19:12:35.513Z,73.75
2017-11-16T19:15:01.486Z,69.57
2017-11-16T19:17:27.474Z,71.03
2017-11-16T19:19:54.207Z,66.50
2017-11-16T19:22:20.909Z,69.47
2017-11-16T19:24:46.900Z,73.82
2017-11-16T19:27:12.876Z,69.27
2017-11-16T19:29:38.918Z,70.15
2017-11-16T19:32:05.624Z,67.07
2017-11-16T19:34:31.666Z,71.03
2017-11-16T19:36:58.386Z,71.72
2017-11-16T19:39:24.393Z,71.65
2017-11-16T19:41:50.403Z,65.53
2017-11-16T19:44:16.386Z,69.15
2017-11-16T19:46:43.130Z,71.65
2017-11-16T19:49:10.089Z,67.00
2017-11-16T19:51:36.064Z,67.93
2017-11-16T19:54:02.046Z,65.22
2017-11-16T19:56:28.078Z,71.97
2017-11-16T19:58:54.082Z,69.15
2017-11-16T20:01:20.062Z,68.65
2017-11-16T20:03:46.050Z,68.30
2017-11-16T20:06:12.035Z,74.07
2017-11-16T20:08:38.014Z,68.45
2017-11-16T20:11:04.017Z,75.35
2017-11-16T20:13:30.005Z,70.70
2017-11-16T20:15:56.021Z,69.60
2017-11-16T20:18:22.754Z,68.60
2017-11-16T20:20:48.743Z,74.93
2017-11-16T20:23:14.752Z,72.90
2017-11-16T20:25:40.702Z,70.00
2017-11-16T20:28:07.415Z,67.12
2017-11-16T20:30:33.382Z,72.55
2017-11-16T20:32:59.358Z,72.95
2017-11-16T20:35:25.334Z,68.73
2017-11-16T20:37:52.319Z,73.18
2017-11-16T20:43:19.806Z,68.65
2017-11-16T20:48:45.053Z,66.53
2017-11-16T20:51:15.690Z,65.47
2017-11-16T20:53:55.379Z,67.35
2017-11-16T20:56:21.377Z,67.05
2017-11-16T20:58:47.368Z,69.00
2017-11-16T21:01:14.109Z,72.60
2017-11-16T21:03:41.782Z,68.82
2017-11-16T21:06:07.767Z,65.03
2017-11-16T21:08:33.755Z,72.30
2017-11-16T21:10:59.779Z,65.20
2017-11-16T21:13:25.732Z,67.90
2017-11-16T21:15:51.722Z,72.28
2017-11-16T21:18:17.850Z,69.65
2017-11-16T21:20:43.812Z,72.13
2017-11-16T21:23:09.794Z,74.53
2017-11-16T21:25:35.775Z,70.97
2017-11-16T21:28:02.529Z,79.75
2017-11-16T21:30:28.508Z,71.13
2017-11-16T21:32:54.762Z,71.18
2017-11-16T21:35:21.472Z,69.10
2017-11-16T21:37:47.443Z,71.20
2017-11-16T21:40:13.450Z,75.50
2017-11-16T21:42:39.453Z,71.00
2017-11-16T21:45:06.179Z,71.37
2017-11-16T21:47:32.190Z,75.82
2017-11-16T21:49:58.198Z,80.03
2017-11-16T21:52:24.218Z,86.07
2017-11-16T21:54:50.210Z,83.65
2017-11-16T21:57:16.205Z,78.00
2017-11-16T21:59:42.926Z,79.45
2017-11-16T22:02:08.924Z,79.78
2017-11-16T22:04:34.928Z,77.00
2017-11-16T22:07:00.909Z,79.68
2017-11-16T22:09:27.637Z,76.15
2017-11-16T22:11:53.595Z,82.53
2017-11-16T22:14:19.614Z,80.38
2017-11-16T22:16:45.574Z,82.07
2017-11-16T22:19:11.543Z,74.97
2017-11-16T22:21:38.601Z,78.72
2017-11-16T22:24:05.304Z,73.87
2017-11-16T22:26:31.269Z,72.53
2017-11-16T22:28:57.461Z,75.10
2017-11-16T22:31:23.438Z,73.12
2017-11-16T22:33:49.390Z,68.50
2017-11-16T22:36:15.367Z,68.15
2017-11-16T22:38:41.330Z,55.05
2017-11-16T22:41:07.285Z,50.08
2017-11-16T22:43:34.006Z,39.40
2017-11-16T22:46:00.728Z,38.38
2017-11-16T22:48:27.437Z,28.60
2017-11-16T22:50:53.707Z,28.35
2017-11-16T22:53:19.659Z,19.83
2017-11-16T22:55:45.619Z,17.17
2017-11-16T22:58:11.880Z,21.75
2017-11-16T23:00:37.845Z,12.97
2017-11-16T23:03:03.819Z,11.73
2017-11-16T23:05:29.808Z,11.12
2017-11-16T23:07:55.842Z,11.40
2017-11-16T23:10:21.815Z,8.70
2017-11-16T23:12:47.796Z,9.50
2017-11-16T23:15:14.616Z,10.80
2017-11-16T23:17:40.596Z,11.30
2017-11-16T23:20:07.313Z,9.38
2017-11-16T23:22:34.054Z,10.82
2017-11-16T23:25:00.759Z,10.53
2017-11-16T23:27:33.977Z,8.70
2017-11-16T23:29:59.934Z,7.05
2017-11-16T23:32:25.881Z,9.23
2017-11-16T23:34:52.554Z,8.10
2017-11-16T23:37:18.521Z,8.30
2017-11-16T23:39:44.470Z,7.87
2017-11-16T23:42:10.463Z,7.03
2017-11-16T23:44:36.433Z,6.15
2017-11-16T23:47:02.399Z,5.78
2017-11-16T23:49:28.630Z,5.62
2017-11-16T23:51:54.593Z,5.93
2017-11-16T23:54:21.306Z,8.00
2017-11-16T23:56:47.299Z,6.97
2017-11-16T23:59:13.271Z,9.77
